Archival Weather

Habib Bourguiba Intl

Habib Bourguiba Intl, Tunisia (DTMB)

Report from: Sunday, October 1, 2023 1:00 PM CET
Current time: Saturday, February 24, 2024 6:04 PM CET

Current weather – Weather history – Daily summaries
Weather forecast

Temperature27.0°C (80.6°F)
Heat index28.2°C (82.7°F)
Dew point18.0°C (64.4°F)
Winds 8 kts (4.1 m/s, 9.2 mph) Vrb
Winds variableWinds variable from North (359.999999°) to East-Northeast (60°)
Visibility6.2 mi. (10 km)
Clouds Scattered clouds 3,000 ft. (914 m)
Altimeter30.21 in.Hg (1023 mB)
Relative humidity58 %
Density altitude1,339 ft. (408 m)
Flight conditions Visual Meteorological Conditions
Raw dataDTMB 011200Z 03008KT 360V060 9999 SCT030 27/18 Q1023
An error has occurred. This application may no longer respond until reloaded. Reload 🗙